Novomar — 5BCT2 — position and weather

sailwx.info

Track history (hours):
 
Tides and Currents Weather Stations Pressure Air Temp Water Temp Dewpoint Dewpoint Depression Visibility Wind Speed Wind Dir Waves Ship Positions

Novomar

Last reported at 2014-Aug-09 10:33 UTC. Time now 2014-Aug-21 04:25 UTC.
Position N 55°42' E 014°41'.
Warning: this ship's position is 11 days out of date.

Length 89 m; draft 5.1 m.

Type: Cargo ship. MMSI: 210974000.

Date/timePositionNaut miles runAvg speedWind from/ knotsBaromVisibWave heightAir tempDewpointWater temp
2014-Aug-09 10:33N 55°42' E 014°41'7 6.9
2014-Aug-09 09:33N 55°35' E 014°38'10 7.0
2014-Aug-09 08:06N 55°25' E 014°37'4 6.8
2014-Aug-09 07:33N 55°22' E 014°35'7 7.2
2014-Aug-09 06:33N 55°16' E 014°27'7 7.3
2014-Aug-09 05:33N 55°10' E 014°20'7 7.5
2014-Aug-09 04:33N 55°03' E 014°15'8 7.5
2014-Aug-09 03:33N 54°56' E 014°11'8 7.5
2014-Aug-09 02:33N 54°49' E 014°07'8 7.6
2014-Aug-09 01:33N 54°41' E 014°03'9 9.4
2014-Aug-09 00:33N 54°33' E 013°58'10 9.8
2014-Aug-08 23:33N 54°23' E 013°53'9 8.9
2014-Aug-08 22:33N 54°16' E 013°44'9 9.0
2014-Aug-08 21:33N 54°12' E 013°30'9 8.8
2014-Aug-08 20:33N 54°15' E 013°15'6 6.5
2014-Aug-08 19:33N 54°19' E 013°06'0 0.0
2014-Aug-08 18:33N 54°19' E 013°06'0 0.0
2014-Aug-08 17:33N 54°19' E 013°06'0 0.0
2014-Aug-08 16:33N 54°19' E 013°06'0 0.0
2014-Aug-08 15:33N 54°19' E 013°06'0 0.0
2014-Aug-08 14:33N 54°19' E 013°06'0 0.0
2014-Aug-08 13:33N 54°19' E 013°06'0 0.0
2014-Aug-08 12:33N 54°19' E 013°06'0 0.0
2014-Aug-08 11:33N 54°19' E 013°06'0 0.0
2014-Aug-08 10:33N 54°19' E 013°06'0 0.0
2014-Aug-08 09:33N 54°19' E 013°06'0 0.0
2014-Aug-08 08:33N 54°19' E 013°06'0 0.1
2014-Aug-08 07:33N 54°19' E 013°06'0 0.0
2014-Aug-08 06:33N 54°19' E 013°06'0 0.0
2014-Aug-08 05:33N 54°19' E 013°06'0 0.0
2014-Aug-08 04:33N 54°19' E 013°06'0 0.0
2014-Aug-08 03:33N 54°19' E 013°06'0 0.0
2014-Aug-08 02:33N 54°19' E 013°06'0 0.0
2014-Aug-08 01:33N 54°19' E 013°06'0 0.0
2014-Aug-08 00:33N 54°19' E 013°06'0 0.0
2014-Aug-07 23:33N 54°19' E 013°06'0 0.0
2014-Aug-07 22:33N 54°19' E 013°06'0 0.0
2014-Aug-07 21:33N 54°19' E 013°06'0 0.0
2014-Aug-07 20:33N 54°19' E 013°06'0 0.0
2014-Aug-07 19:33N 54°19' E 013°06'0 0.0
2014-Aug-07 18:33N 54°19' E 013°06'0 0.0
2014-Aug-07 17:33N 54°19' E 013°06'0 0.0
2014-Aug-07 16:33N 54°19' E 013°06'0 0.0
2014-Aug-07 15:33N 54°19' E 013°06'0 0.0
2014-Aug-07 14:33N 54°19' E 013°06'0 0.0
2014-Aug-07 13:33N 54°19' E 013°06'0 0.0
2014-Aug-07 12:33N 54°19' E 013°06'0 0.0
2014-Aug-07 11:33N 54°19' E 013°06'0 0.0
2014-Aug-07 10:33N 54°19' E 013°06'0 0.0
2014-Aug-07 09:33N 54°19' E 013°06'0 0.0
2014-Aug-07 08:33N 54°19' E 013°06'0 0.0
2014-Aug-07 07:33N 54°19' E 013°06'1 0.8
2014-Aug-07 06:33N 54°18' E 013°07'6 5.7
2014-Aug-07 05:33N 54°15' E 013°15'8 7.8
2014-Aug-07 04:33N 54°12' E 013°28'9 8.8
2014-Aug-07 03:33N 54°15' E 013°42'6 6.2
2014-Aug-07 02:33N 54°20' E 013°49'8 7.9
2014-Aug-07 01:33N 54°24' E 014°00'9 8.9
2014-Aug-07 00:33N 54°28' E 014°14'9 9.1
2014-Aug-06 23:33N 54°31' E 014°28'9 9.1
2014-Aug-06 22:33N 54°37' E 014°40'28 9.3
2014-Aug-06 19:29N 54°56' E 015°17'9 9.5
2014-Aug-06 18:31N 55°03' E 015°27'9 9.5
2014-Aug-06 17:33N 55°11' E 015°35'127 9.4
2014-Aug-06 04:07N 57°03' E 017°23'5 9.4
2014-Aug-06 03:33N 57°08' E 017°26'9 9.4
2014-Aug-06 02:33N 57°17' E 017°32'52 9.4
2014-Aug-05 21:04N 57°55' E 018°37'7 0.2
2014-Aug-04 04:29N 57°52' E 018°47'0 0.0
2014-Aug-04 03:32N 57°52' E 018°47'0 0.0
2014-Aug-04 02:17N 57°52' E 018°47'0 0.0
2014-Aug-04 01:32N 57°52' E 018°47'0 0.0
2014-Aug-03 19:17N 57°52' E 018°47'39 5.1
2014-Aug-03 11:33N 58°30' E 019°03'  
2014-Jul-31 03:33N 55°37' E 015°22'1010.1
2014-Jul-31 02:32N 55°32' E 015°06'1010.3
2014-Jul-31 01:33N 55°27' E 014°51'1010.4
2014-Jul-31 00:33N 55°21' E 014°36'1010.3
2014-Jul-30 23:33N 55°13' E 014°24'13 9.3
2014-Jul-30 22:07N 55°11' E 014°01'810.0
2014-Jul-30 21:19N 55°12' E 013°48'810.3
2014-Jul-30 20:33N 55°12' E 013°34'2110.0
2014-Jul-30 18:25N 55°15' E 012°57'9 9.9
2014-Jul-30 17:33N 55°17' E 012°42'8 8.4
2014-Jul-30 16:33N 55°25' E 012°40'1111.0
2014-Jul-30 15:33N 55°36' E 012°42'1111.1
2014-Jul-30 14:33N 55°47' E 012°41'1110.6
2014-Jul-30 13:33N 55°58' E 012°38'1010.0
2014-Jul-30 12:33N 56°07' E 012°30'1111.0
2014-Jul-30 11:33N 56°13' E 012°15'  
Track history (hours):
 
Tides and Currents Weather Stations Pressure Air Temp Water Temp Dewpoint Dewpoint Depression Visibility Wind Speed Wind Dir Waves Ship Positions

Novomar

Last reported at 2014-Aug-09 10:33 UTC. Time now 2014-Aug-21 04:25 UTC.
Position N 55°42' E 014°41'.
Warning: this ship's position is 11 days out of date.

Length 89 m; draft 5.1 m.

Type: Cargo ship. MMSI: 210974000.

Date/timePositionNaut miles runAvg speedWind from/ knotsBaromVisibWave heightAir tempDewpointWater temp
2014-Aug-09 10:33N 55°42' E 014°41'7 6.9
2014-Aug-09 09:33N 55°35' E 014°38'10 7.0
2014-Aug-09 08:06N 55°25' E 014°37'4 6.8
2014-Aug-09 07:33N 55°22' E 014°35'7 7.2
2014-Aug-09 06:33N 55°16' E 014°27'7 7.3
2014-Aug-09 05:33N 55°10' E 014°20'7 7.5
2014-Aug-09 04:33N 55°03' E 014°15'8 7.5
2014-Aug-09 03:33N 54°56' E 014°11'8 7.5
2014-Aug-09 02:33N 54°49' E 014°07'8 7.6
2014-Aug-09 01:33N 54°41' E 014°03'9 9.4
2014-Aug-09 00:33N 54°33' E 013°58'10 9.8
2014-Aug-08 23:33N 54°23' E 013°53'9 8.9
2014-Aug-08 22:33N 54°16' E 013°44'9 9.0
2014-Aug-08 21:33N 54°12' E 013°30'9 8.8
2014-Aug-08 20:33N 54°15' E 013°15'6 6.5
2014-Aug-08 19:33N 54°19' E 013°06'0 0.0
2014-Aug-08 18:33N 54°19' E 013°06'0 0.0
2014-Aug-08 17:33N 54°19' E 013°06'0 0.0
2014-Aug-08 16:33N 54°19' E 013°06'0 0.0
2014-Aug-08 15:33N 54°19' E 013°06'0 0.0
2014-Aug-08 14:33N 54°19' E 013°06'0 0.0
2014-Aug-08 13:33N 54°19' E 013°06'0 0.0
2014-Aug-08 12:33N 54°19' E 013°06'0 0.0
2014-Aug-08 11:33N 54°19' E 013°06'0 0.0
2014-Aug-08 10:33N 54°19' E 013°06'0 0.0
2014-Aug-08 09:33N 54°19' E 013°06'0 0.0
2014-Aug-08 08:33N 54°19' E 013°06'0 0.1
2014-Aug-08 07:33N 54°19' E 013°06'0 0.0
2014-Aug-08 06:33N 54°19' E 013°06'0 0.0
2014-Aug-08 05:33N 54°19' E 013°06'0 0.0
2014-Aug-08 04:33N 54°19' E 013°06'0 0.0
2014-Aug-08 03:33N 54°19' E 013°06'0 0.0
2014-Aug-08 02:33N 54°19' E 013°06'0 0.0
2014-Aug-08 01:33N 54°19' E 013°06'0 0.0
2014-Aug-08 00:33N 54°19' E 013°06'0 0.0
2014-Aug-07 23:33N 54°19' E 013°06'0 0.0
2014-Aug-07 22:33N 54°19' E 013°06'0 0.0
2014-Aug-07 21:33N 54°19' E 013°06'0 0.0
2014-Aug-07 20:33N 54°19' E 013°06'0 0.0
2014-Aug-07 19:33N 54°19' E 013°06'0 0.0
2014-Aug-07 18:33N 54°19' E 013°06'0 0.0
2014-Aug-07 17:33N 54°19' E 013°06'0 0.0
2014-Aug-07 16:33N 54°19' E 013°06'0 0.0
2014-Aug-07 15:33N 54°19' E 013°06'0 0.0
2014-Aug-07 14:33N 54°19' E 013°06'0 0.0
2014-Aug-07 13:33N 54°19' E 013°06'0 0.0
2014-Aug-07 12:33N 54°19' E 013°06'0 0.0
2014-Aug-07 11:33N 54°19' E 013°06'0 0.0
2014-Aug-07 10:33N 54°19' E 013°06'0 0.0
2014-Aug-07 09:33N 54°19' E 013°06'0 0.0
2014-Aug-07 08:33N 54°19' E 013°06'0 0.0
2014-Aug-07 07:33N 54°19' E 013°06'1 0.8
2014-Aug-07 06:33N 54°18' E 013°07'6 5.7
2014-Aug-07 05:33N 54°15' E 013°15'8 7.8
2014-Aug-07 04:33N 54°12' E 013°28'9 8.8
2014-Aug-07 03:33N 54°15' E 013°42'6 6.2
2014-Aug-07 02:33N 54°20' E 013°49'8 7.9
2014-Aug-07 01:33N 54°24' E 014°00'9 8.9
2014-Aug-07 00:33N 54°28' E 014°14'9 9.1
2014-Aug-06 23:33N 54°31' E 014°28'9 9.1
2014-Aug-06 22:33N 54°37' E 014°40'28 9.3
2014-Aug-06 19:29N 54°56' E 015°17'9 9.5
2014-Aug-06 18:31N 55°03' E 015°27'9 9.5
2014-Aug-06 17:33N 55°11' E 015°35'127 9.4
2014-Aug-06 04:07N 57°03' E 017°23'5 9.4
2014-Aug-06 03:33N 57°08' E 017°26'9 9.4
2014-Aug-06 02:33N 57°17' E 017°32'52 9.4
2014-Aug-05 21:04N 57°55' E 018°37'7 0.2
2014-Aug-04 04:29N 57°52' E 018°47'0 0.0
2014-Aug-04 03:32N 57°52' E 018°47'0 0.0
2014-Aug-04 02:17N 57°52' E 018°47'0 0.0
2014-Aug-04 01:32N 57°52' E 018°47'0 0.0
2014-Aug-03 19:17N 57°52' E 018°47'39 5.1
2014-Aug-03 11:33N 58°30' E 019°03'  
2014-Jul-31 03:33N 55°37' E 015°22'1010.1
2014-Jul-31 02:32N 55°32' E 015°06'1010.3
2014-Jul-31 01:33N 55°27' E 014°51'1010.4
2014-Jul-31 00:33N 55°21' E 014°36'1010.3
2014-Jul-30 23:33N 55°13' E 014°24'13 9.3
2014-Jul-30 22:07N 55°11' E 014°01'810.0
2014-Jul-30 21:19N 55°12' E 013°48'810.3
2014-Jul-30 20:33N 55°12' E 013°34'2110.0
2014-Jul-30 18:25N 55°15' E 012°57'9 9.9
2014-Jul-30 17:33N 55°17' E 012°42'8 8.4
2014-Jul-30 16:33N 55°25' E 012°40'1111.0
2014-Jul-30 15:33N 55°36' E 012°42'1111.1
2014-Jul-30 14:33N 55°47' E 012°41'1110.6
2014-Jul-30 13:33N 55°58' E 012°38'1010.0
2014-Jul-30 12:33N 56°07' E 012°30'1111.0
2014-Jul-30 11:33N 56°13' E 012°15'  

Dump ship's entire track history